KBTM

Bert Mooney Airport

Butte, Montana, USA
METAR KBTM 120053Z AUTO 04006KT 10SM FEW046 SCT060 M01/M11 A2983 RMK AO2 SLP146 T10061106
Observed Flight Rules
Dec-12 @ 00:53 UTC (17 minutes ago) Visual Flight Rules
Wind Visibility Clouds
40° at 6 knots 10 miles
  • Few at 4,600' AGL
  • Scattered at 6,000' AGL
Temperatures Readings
Current -1°C / 30°F
Dewpoint -11°C / 12°F
Humidity 47%
Altimeter 29.83" Hg
Pressure 1014.6 hPa
Elevation 1688
METAR KBTM 120053Z AUTO 04006KT 10SM FEW046 SCT060 M01/M11 A2983 RMK AO2 SLP146 T10061106
Observed Flight Rules
Dec-12 @ 00:53 UTC
(17 minutes ago)
VFR
Wind Visibility
40° at 6 knots 10 miles
Clouds
  • Few at 4,600' AGL
  • Scattered at 6,000' AGL
Temperature Dewpoint
-1°C / 30°F -11°C / 12°F
Humidity Altimeter Pressure
47% 29.83" Hg 1014.6 hPa